createdAt,value
2019-02-23T00:00:31.754Z,5.10
2019-02-23T00:03:00.331Z,5.10
2019-02-23T00:05:28.842Z,5.00
2019-02-23T00:07:57.330Z,5.00
2019-02-23T00:10:25.849Z,5.00
2019-02-23T00:12:54.436Z,5.00
2019-02-23T00:15:23.864Z,5.00
2019-02-23T00:17:52.435Z,5.00
2019-02-23T00:20:21.018Z,5.00
2019-02-23T00:22:49.601Z,5.00
2019-02-23T00:25:18.114Z,4.80
2019-02-23T00:27:47.390Z,4.80
2019-02-23T00:30:15.898Z,4.80
2019-02-23T00:32:44.410Z,4.80
2019-02-23T00:35:13.012Z,4.80
2019-02-23T00:37:41.579Z,4.80
2019-02-23T00:40:10.091Z,4.90
2019-02-23T00:42:38.588Z,4.80
2019-02-23T00:45:08.027Z,4.80
2019-02-23T00:47:36.594Z,4.80
2019-02-23T00:50:05.530Z,4.80
2019-02-23T00:52:34.870Z,4.70
2019-02-23T00:55:03.624Z,4.70
2019-02-23T00:57:32.193Z,4.70
2019-02-23T01:00:00.770Z,4.70
2019-02-23T01:02:30.441Z,4.70
2019-02-23T01:04:58.959Z,4.70
2019-02-23T01:07:27.521Z,4.70
2019-02-23T01:09:56.050Z,4.60
2019-02-23T01:12:24.626Z,4.60
2019-02-23T01:14:53.974Z,4.70
2019-02-23T01:17:22.545Z,4.70
2019-02-23T01:19:51.145Z,4.70
2019-02-23T01:22:19.704Z,4.70
2019-02-23T01:24:48.283Z,4.70
2019-02-23T01:27:16.888Z,4.70
2019-02-23T01:29:45.471Z,4.70
2019-02-23T01:32:14.052Z,4.70
2019-02-23T01:34:42.623Z,4.70
2019-02-23T01:37:11.319Z,4.70
2019-02-23T01:39:39.985Z,4.70
2019-02-23T01:42:08.610Z,4.60
2019-02-23T01:44:37.229Z,4.50
2019-02-23T01:47:05.875Z,4.50
2019-02-23T01:49:34.453Z,4.50
2019-02-23T01:52:03.014Z,4.50
2019-02-23T01:54:31.577Z,4.60
2019-02-23T01:57:00.190Z,4.50
2019-02-23T01:59:28.811Z,4.50
2019-02-23T02:01:57.381Z,4.50
2019-02-23T02:04:25.878Z,4.60
2019-02-23T02:06:54.620Z,4.50
2019-02-23T02:09:23.265Z,4.60
2019-02-23T02:11:51.918Z,4.60
2019-02-23T02:14:22.143Z,4.60
2019-02-23T02:16:50.745Z,4.60
2019-02-23T02:19:19.325Z,4.60
2019-02-23T02:21:48.195Z,4.60
2019-02-23T02:24:16.772Z,4.60
2019-02-23T02:26:46.204Z,4.60
2019-02-23T02:29:14.774Z,4.60
2019-02-23T02:31:43.378Z,4.60
2019-02-23T02:34:14.183Z,4.60
2019-02-23T02:36:42.790Z,4.60
2019-02-23T02:39:12.699Z,4.60
2019-02-23T02:41:41.278Z,4.60
2019-02-23T02:44:09.845Z,4.60
2019-02-23T02:46:38.535Z,4.70
2019-02-23T02:49:07.109Z,4.70
2019-02-23T02:51:35.883Z,4.60
2019-02-23T02:54:04.553Z,4.60
2019-02-23T02:56:33.163Z,4.60
2019-02-23T02:59:01.728Z,4.70
2019-02-23T03:01:30.325Z,4.60
2019-02-23T03:03:59.013Z,4.60
2019-02-23T03:06:27.607Z,4.50
2019-02-23T03:08:56.175Z,4.50
2019-02-23T03:11:24.756Z,4.50
2019-02-23T03:13:53.330Z,4.50
2019-02-23T03:16:22.189Z,4.40
2019-02-23T03:18:50.989Z,4.40
2019-02-23T03:21:19.572Z,4.40
2019-02-23T03:23:48.085Z,4.40
2019-02-23T03:26:16.677Z,4.40
2019-02-23T03:28:45.249Z,4.40
2019-02-23T03:31:13.835Z,4.40
2019-02-23T03:33:42.417Z,4.30
2019-02-23T03:36:11.001Z,4.30
2019-02-23T03:38:39.627Z,4.30
2019-02-23T03:41:08.234Z,4.20
2019-02-23T03:43:36.869Z,4.20
2019-02-23T03:46:05.524Z,4.20
2019-02-23T03:48:34.093Z,4.20
2019-02-23T03:51:02.628Z,4.20
2019-02-23T03:53:31.276Z,4.10
2019-02-23T03:55:59.859Z,4.10
2019-02-23T03:58:28.431Z,4.10
2019-02-23T04:00:57.095Z,4.10
2019-02-23T04:03:25.903Z,4.10
2019-02-23T04:05:54.482Z,4.20
2019-02-23T04:08:23.628Z,4.10
2019-02-23T04:10:52.226Z,4.10
2019-02-23T04:13:20.790Z,4.10
2019-02-23T04:15:49.375Z,4.10
2019-02-23T04:18:17.950Z,4.00
2019-02-23T04:20:46.546Z,3.90
2019-02-23T04:23:15.037Z,3.90
2019-02-23T04:25:43.555Z,3.90
2019-02-23T04:28:12.130Z,3.90
2019-02-23T04:30:40.720Z,3.80
2019-02-23T04:33:09.235Z,3.90
2019-02-23T04:35:37.794Z,3.90
2019-02-23T04:38:06.381Z,3.80
2019-02-23T04:40:35.149Z,3.80
2019-02-23T04:43:03.714Z,3.80
2019-02-23T04:45:32.200Z,3.70
2019-02-23T04:48:00.786Z,3.70
2019-02-23T04:50:29.286Z,3.70
2019-02-23T04:52:57.886Z,3.70
2019-02-23T04:55:26.728Z,3.70
2019-02-23T04:57:55.315Z,3.70
2019-02-23T05:00:23.905Z,3.80
2019-02-23T05:02:52.493Z,3.70
2019-02-23T05:05:21.851Z,3.60
2019-02-23T05:07:50.464Z,3.60
2019-02-23T05:10:18.998Z,3.60
2019-02-23T05:12:47.583Z,3.50
2019-02-23T05:15:16.488Z,3.50
2019-02-23T05:17:45.072Z,3.50
2019-02-23T05:20:14.205Z,3.50
2019-02-23T05:22:42.781Z,3.40
2019-02-23T05:25:11.413Z,3.30
2019-02-23T05:27:39.998Z,3.30
2019-02-23T05:30:11.406Z,3.30
2019-02-23T05:32:39.991Z,3.20
2019-02-23T05:35:13.158Z,3.20
2019-02-23T05:37:41.809Z,3.10
2019-02-23T05:40:12.020Z,3.10
2019-02-23T05:42:41.175Z,3.10
2019-02-23T05:45:11.097Z,3.10
2019-02-23T05:47:39.675Z,3.10
2019-02-23T05:50:09.486Z,3.10
2019-02-23T05:52:37.998Z,3.20
2019-02-23T05:55:06.738Z,3.20
2019-02-23T05:57:35.338Z,3.10
2019-02-23T06:00:05.239Z,3.10
2019-02-23T06:02:33.823Z,3.10
2019-02-23T06:05:02.542Z,3.00
2019-02-23T06:07:31.902Z,3.10
2019-02-23T06:10:01.099Z,3.10
2019-02-23T06:12:29.685Z,3.00
2019-02-23T06:14:58.436Z,2.90
2019-02-23T06:17:27.024Z,2.90
2019-02-23T06:19:55.779Z,2.80
2019-02-23T06:22:24.460Z,2.90
2019-02-23T06:24:53.048Z,2.90
2019-02-23T06:27:21.655Z,2.90
2019-02-23T06:29:50.227Z,2.80
2019-02-23T06:32:18.814Z,2.80
2019-02-23T06:34:47.385Z,2.90
2019-02-23T06:37:15.981Z,2.90
2019-02-23T06:39:44.612Z,2.80
2019-02-23T06:42:13.134Z,2.90
2019-02-23T06:44:41.702Z,2.90
2019-02-23T06:47:10.306Z,2.90
2019-02-23T06:49:39.147Z,2.90
2019-02-23T06:52:07.816Z,3.00
2019-02-23T06:54:36.961Z,2.90
2019-02-23T06:57:05.547Z,3.00
2019-02-23T06:59:34.115Z,2.90
2019-02-23T07:02:02.713Z,2.90
2019-02-23T07:04:31.302Z,2.90
2019-02-23T07:06:59.872Z,2.90
2019-02-23T07:09:28.450Z,2.90
2019-02-23T07:11:56.961Z,3.00
2019-02-23T07:14:25.542Z,3.00
2019-02-23T07:16:54.112Z,3.00
2019-02-23T07:19:22.698Z,3.00
2019-02-23T07:21:51.268Z,3.10
2019-02-23T07:24:20.629Z,3.00
2019-02-23T07:26:49.189Z,3.10
2019-02-23T07:29:17.694Z,3.10
2019-02-23T07:31:46.283Z,3.10
2019-02-23T07:34:15.171Z,3.10
2019-02-23T07:36:43.728Z,3.20
2019-02-23T07:39:12.504Z,3.20
2019-02-23T07:41:41.066Z,3.20
2019-02-23T07:44:09.573Z,3.10
2019-02-23T07:46:38.073Z,3.20
2019-02-23T07:49:06.577Z,3.30
2019-02-23T07:51:35.161Z,3.30
2019-02-23T07:54:03.737Z,3.30
2019-02-23T07:56:32.226Z,3.40
2019-02-23T07:59:00.822Z,3.50
2019-02-23T08:01:29.314Z,3.60
2019-02-23T08:03:57.845Z,3.60
2019-02-23T08:06:26.412Z,3.70
2019-02-23T08:08:55.001Z,3.80
2019-02-23T08:11:23.579Z,3.80
2019-02-23T08:13:52.088Z,3.80
2019-02-23T08:16:20.590Z,3.90
2019-02-23T08:18:49.450Z,3.90
2019-02-23T08:21:19.226Z,4.00
2019-02-23T08:23:47.958Z,4.10
2019-02-23T08:26:16.619Z,4.20
2019-02-23T08:28:45.982Z,4.20
2019-02-23T08:31:14.555Z,4.30
2019-02-23T08:33:43.214Z,4.20
2019-02-23T08:36:11.775Z,4.30
2019-02-23T08:38:40.357Z,4.40
2019-02-23T08:41:08.858Z,4.30
2019-02-23T08:43:37.445Z,4.30
2019-02-23T08:46:06.513Z,4.40
2019-02-23T08:48:35.179Z,4.60
2019-02-23T08:51:04.538Z,4.60
2019-02-23T08:53:33.145Z,4.70
2019-02-23T08:56:01.640Z,4.80
2019-02-23T08:58:30.838Z,4.90
2019-02-23T09:00:59.401Z,4.90
2019-02-23T09:03:28.234Z,5.10
2019-02-23T09:05:56.814Z,5.30
2019-02-23T09:08:25.403Z,5.30
2019-02-23T09:10:53.977Z,5.30
2019-02-23T09:13:22.551Z,5.40
2019-02-23T09:15:51.403Z,5.40
2019-02-23T09:18:19.925Z,5.40
2019-02-23T09:20:48.581Z,5.40
2019-02-23T09:23:17.164Z,5.70
2019-02-23T09:25:45.825Z,5.70
2019-02-23T09:28:14.438Z,5.90
2019-02-23T09:30:42.960Z,6.00
2019-02-23T09:33:11.541Z,6.10
2019-02-23T09:35:40.111Z,6.30
2019-02-23T09:38:08.769Z,6.40
2019-02-23T09:40:37.353Z,6.50
2019-02-23T09:43:06.008Z,6.70
2019-02-23T09:45:34.548Z,6.80
2019-02-23T09:48:03.130Z,7.00
2019-02-23T09:50:32.791Z,7.10
2019-02-23T09:53:10.874Z,7.20
2019-02-23T09:55:33.370Z,7.20
2019-02-23T09:58:02.506Z,7.30
2019-02-23T10:00:31.271Z,7.30
2019-02-23T10:03:01.440Z,7.30
2019-02-23T10:05:29.945Z,7.30
2019-02-23T10:07:58.515Z,7.30
2019-02-23T10:10:27.098Z,7.30
2019-02-23T10:12:55.662Z,7.40
2019-02-23T10:15:24.323Z,7.50
2019-02-23T10:17:52.902Z,7.80
2019-02-23T10:20:21.509Z,7.60
2019-02-23T10:22:50.083Z,7.60
2019-02-23T10:25:19.023Z,7.60
2019-02-23T10:27:47.593Z,7.80
2019-02-23T10:30:17.014Z,7.80
2019-02-23T10:32:45.526Z,7.80
2019-02-23T10:35:14.548Z,7.80
2019-02-23T10:37:43.410Z,7.60
2019-02-23T10:40:12.758Z,7.60
2019-02-23T10:42:41.397Z,7.70
2019-02-23T10:45:13.491Z,7.70
2019-02-23T10:47:42.154Z,7.90
2019-02-23T10:50:12.291Z,7.70
2019-02-23T10:52:40.926Z,7.60
2019-02-23T10:55:11.640Z,7.60
2019-02-23T10:57:40.277Z,7.70
2019-02-23T11:00:18.940Z,7.90
2019-02-23T11:02:47.682Z,8.00
2019-02-23T11:05:16.510Z,8.20
2019-02-23T11:07:45.142Z,8.10
2019-02-23T11:10:14.150Z,8.10
2019-02-23T11:12:42.652Z,8.10
2019-02-23T11:15:15.478Z,8.00
2019-02-23T11:17:44.177Z,8.10
2019-02-23T11:20:13.099Z,8.20
2019-02-23T11:22:41.659Z,8.30
2019-02-23T11:25:11.688Z,8.40
2019-02-23T11:27:40.392Z,8.60
2019-02-23T11:30:11.529Z,8.60
2019-02-23T11:32:40.097Z,8.60
2019-02-23T11:35:11.318Z,8.60
2019-02-23T11:37:39.897Z,8.70
2019-02-23T11:40:10.815Z,8.80
2019-02-23T11:42:39.381Z,8.80
2019-02-23T11:45:09.589Z,9.00
2019-02-23T11:47:38.366Z,9.00
2019-02-23T11:50:13.680Z,9.10
2019-02-23T11:52:42.379Z,9.20
2019-02-23T11:55:11.084Z,9.10
2019-02-23T11:57:39.666Z,9.00
2019-02-23T12:00:11.357Z,9.10
2019-02-23T12:02:39.946Z,9.20
2019-02-23T12:05:09.850Z,9.30
2019-02-23T12:07:38.436Z,9.20
2019-02-23T12:10:16.422Z,9.20
2019-02-23T12:12:45.183Z,9.30
2019-02-23T12:15:13.802Z,9.30
2019-02-23T12:17:42.396Z,9.30
2019-02-23T12:20:11.397Z,9.30
2019-02-23T12:22:39.987Z,9.50
2019-02-23T12:25:08.887Z,9.40
2019-02-23T12:27:37.470Z,9.40
2019-02-23T12:30:08.199Z,9.50
2019-02-23T12:32:36.795Z,9.50
2019-02-23T12:35:09.979Z,9.50
2019-02-23T12:37:38.637Z,9.50
2019-02-23T12:40:08.571Z,9.50
2019-02-23T12:42:37.231Z,9.60
2019-02-23T12:45:08.232Z,9.60
2019-02-23T12:47:36.903Z,9.60
2019-02-23T12:50:08.605Z,9.60
2019-02-23T12:52:37.124Z,9.60
2019-02-23T12:55:08.129Z,9.70
2019-02-23T12:57:36.716Z,9.60
2019-02-23T13:00:18.757Z,9.50
2019-02-23T13:02:47.455Z,9.60
2019-02-23T13:05:16.125Z,9.50
2019-02-23T13:07:44.791Z,9.50
2019-02-23T13:10:13.785Z,9.60
2019-02-23T13:12:45.370Z,9.70
2019-02-23T13:15:19.942Z,9.70
2019-02-23T13:18:03.351Z,9.60
2019-02-23T13:20:46.611Z,9.50
2019-02-23T13:23:39.227Z,9.50
2019-02-23T13:26:30.089Z,9.60
2019-02-23T13:29:07.835Z,9.60
2019-02-23T13:31:45.287Z,9.70
2019-02-23T13:34:43.919Z,9.70
2019-02-23T13:37:27.249Z,9.60
2019-02-23T13:40:11.014Z,9.70
2019-02-23T13:42:51.547Z,9.70
2019-02-23T13:45:29.295Z,9.70
2019-02-23T13:48:21.173Z,9.60
2019-02-23T13:51:05.674Z,9.70
2019-02-23T13:53:55.106Z,9.60
2019-02-23T13:56:44.875Z,9.70
2019-02-23T13:59:31.335Z,9.70
2019-02-23T14:02:17.721Z,9.70
2019-02-23T14:05:08.440Z,9.70
2019-02-23T14:07:45.997Z,9.70
2019-02-23T14:10:17.569Z,9.70
2019-02-23T14:13:04.486Z,9.80
2019-02-23T14:15:36.054Z,9.70
2019-02-23T14:18:33.015Z,9.70
2019-02-23T14:21:08.518Z,9.70
2019-02-23T14:23:51.973Z,9.70
2019-02-23T14:26:32.528Z,9.70
2019-02-23T14:29:13.054Z,9.80
2019-02-23T14:31:56.777Z,9.70
2019-02-23T14:34:30.957Z,9.60
2019-02-23T14:37:14.529Z,9.60
2019-02-23T14:39:48.697Z,9.60
2019-02-23T14:42:23.222Z,9.60
2019-02-23T14:45:27.920Z,9.60
2019-02-23T14:48:20.518Z,9.70
2019-02-23T14:50:54.836Z,9.70
2019-02-23T14:53:52.023Z,9.80
2019-02-23T14:56:35.698Z,9.70
2019-02-23T14:59:32.914Z,9.80
2019-02-23T15:02:19.696Z,9.80
2019-02-23T15:04:59.969Z,9.80
2019-02-23T15:07:37.221Z,9.90
2019-02-23T15:10:20.802Z,9.90
2019-02-23T15:13:01.193Z,9.80
2019-02-23T15:15:47.511Z,9.90
2019-02-23T15:18:27.858Z,10.00
2019-02-23T15:21:05.363Z,9.90
2019-02-23T15:23:39.674Z,9.80
2019-02-23T15:26:33.493Z,9.90
2019-02-23T15:29:27.447Z,9.80
2019-02-23T15:32:10.713Z,9.70
2019-02-23T15:35:10.834Z,9.70
2019-02-23T15:37:57.378Z,9.60
2019-02-23T15:40:29.144Z,9.60
2019-02-23T15:43:00.817Z,9.50
2019-02-23T15:45:44.195Z,9.50
2019-02-23T15:48:39.776Z,9.40
2019-02-23T15:51:08.436Z,9.40
2019-02-23T15:53:37.560Z,9.40
2019-02-23T15:56:06.365Z,9.30
2019-02-23T15:58:35.030Z,9.30
2019-02-23T16:01:03.666Z,9.30
2019-02-23T16:03:32.276Z,9.30
2019-02-23T16:06:00.823Z,9.30
2019-02-23T16:08:29.490Z,9.30
2019-02-23T16:10:57.982Z,9.20
2019-02-23T16:13:26.593Z,9.20
2019-02-23T16:15:55.089Z,9.20
2019-02-23T16:18:23.600Z,9.20
2019-02-23T16:20:52.158Z,9.20
2019-02-23T16:23:20.786Z,9.10
2019-02-23T16:25:50.601Z,9.10
2019-02-23T16:28:19.189Z,9.00
2019-02-23T16:30:48.026Z,8.90
2019-02-23T16:33:16.519Z,8.90
2019-02-23T16:35:45.667Z,8.80
2019-02-23T16:38:14.304Z,8.80
2019-02-23T16:40:42.889Z,8.70
2019-02-23T16:43:11.470Z,8.60
2019-02-23T16:45:40.082Z,8.50
2019-02-23T16:48:08.647Z,8.50
2019-02-23T16:50:37.806Z,8.40
2019-02-23T16:53:06.414Z,8.30
2019-02-23T16:55:35.009Z,8.20
2019-02-23T16:58:03.574Z,8.10
2019-02-23T17:00:32.157Z,8.00
2019-02-23T17:03:00.646Z,7.90
2019-02-23T17:05:29.949Z,7.70
2019-02-23T17:07:58.607Z,7.70
2019-02-23T17:10:28.061Z,7.60
2019-02-23T17:12:56.751Z,7.50
2019-02-23T17:15:25.333Z,7.40
2019-02-23T17:17:53.829Z,7.30
2019-02-23T17:20:25.494Z,7.20
2019-02-23T17:22:52.694Z,7.10
2019-02-23T17:25:21.197Z,7.00
2019-02-23T17:27:49.781Z,6.90
2019-02-23T17:30:18.392Z,6.90
2019-02-23T17:32:46.961Z,6.90
2019-02-23T17:35:15.477Z,6.90
2019-02-23T17:37:44.069Z,7.00
2019-02-23T17:40:12.581Z,7.00
2019-02-23T17:42:41.149Z,7.00
2019-02-23T17:45:10.702Z,6.90
2019-02-23T17:47:40.517Z,6.70
2019-02-23T17:50:09.282Z,6.60
2019-02-23T17:52:37.773Z,6.50
2019-02-23T17:55:07.922Z,6.50
2019-02-23T17:57:36.741Z,6.40
2019-02-23T18:00:08.564Z,6.30
2019-02-23T18:02:38.673Z,6.30
2019-02-23T18:05:07.354Z,6.20
2019-02-23T18:07:35.913Z,6.10
2019-02-23T18:10:06.970Z,6.10
2019-02-23T18:12:35.510Z,6.10
2019-02-23T18:15:06.232Z,6.00
2019-02-23T18:17:34.862Z,6.00
2019-02-23T18:20:04.586Z,5.90
2019-02-23T18:22:33.413Z,5.90
2019-02-23T18:25:01.948Z,5.90
2019-02-23T18:27:30.743Z,5.80
2019-02-23T18:29:59.253Z,5.80
2019-02-23T18:32:27.738Z,5.70
2019-02-23T18:34:56.261Z,5.70
2019-02-23T18:37:24.822Z,5.60
2019-02-23T18:39:53.426Z,5.60
2019-02-23T18:42:21.975Z,5.60
2019-02-23T18:44:50.583Z,5.60
2019-02-23T18:47:19.149Z,5.50
2019-02-23T18:49:47.656Z,5.50
2019-02-23T18:52:16.762Z,5.50
2019-02-23T18:54:45.324Z,5.50
2019-02-23T18:57:13.910Z,5.50
2019-02-23T18:59:44.082Z,5.50
2019-02-23T19:02:13.406Z,5.40
2019-02-23T19:04:41.964Z,5.40
2019-02-23T19:07:10.474Z,5.30
2019-02-23T19:09:41.789Z,5.20
2019-02-23T19:12:10.377Z,5.20
2019-02-23T19:14:38.867Z,5.20
2019-02-23T19:17:07.450Z,5.10
2019-02-23T19:19:36.025Z,5.10
2019-02-23T19:22:04.557Z,5.10
2019-02-23T19:24:33.113Z,5.10
2019-02-23T19:27:01.712Z,5.10
2019-02-23T19:29:30.275Z,5.10
2019-02-23T19:31:58.898Z,5.10
2019-02-23T19:34:27.394Z,5.10
2019-02-23T19:36:55.976Z,5.10
2019-02-23T19:39:27.175Z,5.10
2019-02-23T19:41:55.865Z,5.00
2019-02-23T19:44:24.430Z,5.00
2019-02-23T19:46:54.150Z,5.00
2019-02-23T19:49:22.760Z,5.00
2019-02-23T19:51:52.429Z,5.20
2019-02-23T19:54:20.926Z,5.10
2019-02-23T19:56:49.439Z,5.10
2019-02-23T19:59:18.711Z,5.10
2019-02-23T20:01:47.298Z,5.10
2019-02-23T20:04:16.998Z,5.10
2019-02-23T20:06:45.507Z,5.10
2019-02-23T20:09:14.178Z,5.00
2019-02-23T20:11:42.760Z,5.00
2019-02-23T20:14:11.347Z,4.90
2019-02-23T20:16:41.214Z,4.80
2019-02-23T20:19:09.703Z,4.80
2019-02-23T20:21:38.289Z,4.70
2019-02-23T20:24:06.874Z,4.70
2019-02-23T20:26:37.014Z,4.70
2019-02-23T20:29:05.505Z,4.70
2019-02-23T20:31:34.088Z,4.60
2019-02-23T20:34:02.725Z,4.60
2019-02-23T20:36:31.383Z,4.50
2019-02-23T20:39:00.022Z,4.50
2019-02-23T20:41:29.892Z,4.40
2019-02-23T20:43:58.454Z,4.40
2019-02-23T20:46:27.033Z,4.30
2019-02-23T20:48:55.705Z,4.30
2019-02-23T20:51:26.076Z,4.30
2019-02-23T20:53:56.516Z,4.30
2019-02-23T20:56:25.106Z,4.30
2019-02-23T20:58:53.741Z,4.30
2019-02-23T21:01:22.325Z,4.30
2019-02-23T21:03:50.927Z,4.20
2019-02-23T21:06:19.779Z,4.20
2019-02-23T21:08:48.415Z,4.20
2019-02-23T21:11:16.976Z,4.30
2019-02-23T21:13:45.604Z,4.30
2019-02-23T21:16:15.343Z,4.30
2019-02-23T21:18:43.912Z,4.30
2019-02-23T21:21:12.538Z,4.40
2019-02-23T21:23:41.801Z,4.30
2019-02-23T21:26:10.704Z,4.40
2019-02-23T21:28:40.645Z,4.30
2019-02-23T21:31:09.209Z,4.30
2019-02-23T21:33:37.792Z,4.30
2019-02-23T21:36:06.518Z,4.20
2019-02-23T21:38:35.710Z,4.20
2019-02-23T21:41:04.631Z,4.10
2019-02-23T21:43:33.829Z,4.20
2019-02-23T21:46:02.588Z,4.10
2019-02-23T21:48:31.616Z,4.20
2019-02-23T21:51:00.177Z,4.20
2019-02-23T21:53:28.838Z,4.20
2019-02-23T21:55:57.560Z,4.30
2019-02-23T21:58:26.633Z,4.20
2019-02-23T22:00:55.219Z,4.20
2019-02-23T22:03:23.815Z,4.30
2019-02-23T22:05:52.447Z,4.30
2019-02-23T22:08:21.045Z,4.30
2019-02-23T22:10:49.761Z,4.30
2019-02-23T22:13:18.464Z,4.30
2019-02-23T22:15:48.144Z,4.20
2019-02-23T22:18:16.814Z,4.10
2019-02-23T22:20:45.415Z,4.10
2019-02-23T22:23:13.965Z,4.00
2019-02-23T22:25:42.866Z,4.00
2019-02-23T22:28:11.909Z,3.90
2019-02-23T22:30:40.465Z,4.00
2019-02-23T22:33:09.058Z,4.00
2019-02-23T22:35:37.819Z,4.00
2019-02-23T22:38:06.475Z,4.00
2019-02-23T22:40:35.297Z,4.00
2019-02-23T22:43:04.180Z,3.90
2019-02-23T22:45:32.753Z,4.00
2019-02-23T22:48:01.350Z,4.00
2019-02-23T22:50:30.524Z,4.10
2019-02-23T22:52:59.118Z,4.10
2019-02-23T22:55:28.349Z,4.10
2019-02-23T22:57:57.203Z,4.10
2019-02-23T23:00:29.176Z,4.10
2019-02-23T23:02:57.845Z,4.10
2019-02-23T23:05:26.408Z,4.10
2019-02-23T23:07:55.421Z,4.10
2019-02-23T23:10:23.962Z,4.10
2019-02-23T23:12:53.357Z,4.20
2019-02-23T23:15:22.069Z,4.20
2019-02-23T23:17:50.647Z,4.10
2019-02-23T23:20:19.204Z,4.10
2019-02-23T23:22:47.936Z,4.00
2019-02-23T23:25:16.442Z,4.00
2019-02-23T23:27:49.326Z,4.00
2019-02-23T23:30:15.940Z,4.00
2019-02-23T23:32:44.505Z,3.90
2019-02-23T23:35:13.369Z,3.80
2019-02-23T23:37:41.929Z,3.80
2019-02-23T23:40:11.254Z,3.80
2019-02-23T23:42:39.750Z,3.70
2019-02-23T23:45:08.413Z,3.60
2019-02-23T23:47:36.975Z,3.60
2019-02-23T23:50:06.501Z,3.50
2019-02-23T23:52:35.077Z,3.40
2019-02-23T23:55:03.929Z,3.30
2019-02-23T23:57:32.502Z,3.30
